sensor_id;sensor_type;location;lat;lon;timestamp;temperature;humidity
69324;DHT22;56470;47.350;8.718;2023-02-23T00:00:25;11.25;72.02
69324;DHT22;56470;47.350;8.718;2023-02-23T00:02:54;11.26;72.10
69324;DHT22;56470;47.350;8.718;2023-02-23T00:05:21;11.27;72.49
69324;DHT22;56470;47.350;8.718;2023-02-23T00:07:47;11.23;72.73
69324;DHT22;56470;47.350;8.718;2023-02-23T00:10:13;11.14;72.98
69324;DHT22;56470;47.350;8.718;2023-02-23T00:12:40;11.09;73.27
69324;DHT22;56470;47.350;8.718;2023-02-23T00:15:06;11.04;73.75
69324;DHT22;56470;47.350;8.718;2023-02-23T00:17:32;10.99;73.52
69324;DHT22;56470;47.350;8.718;2023-02-23T00:19:57;10.98;73.73
69324;DHT22;56470;47.350;8.718;2023-02-23T00:22:24;10.98;73.83
69324;DHT22;56470;47.350;8.718;2023-02-23T00:24:50;10.99;73.47
69324;DHT22;56470;47.350;8.718;2023-02-23T00:27:15;10.97;73.44
69324;DHT22;56470;47.350;8.718;2023-02-23T00:29:45;10.92;74.60
69324;DHT22;56470;47.350;8.718;2023-02-23T00:32:13;10.81;74.70
69324;DHT22;56470;47.350;8.718;2023-02-23T00:34:46;10.78;74.90
69324;DHT22;56470;47.350;8.718;2023-02-23T00:37:15;10.73;74.74
69324;DHT22;56470;47.350;8.718;2023-02-23T00:39:41;10.71;75.08
69324;DHT22;56470;47.350;8.718;2023-02-23T00:42:06;10.68;75.06
69324;DHT22;56470;47.350;8.718;2023-02-23T00:44:32;10.68;75.17
69324;DHT22;56470;47.350;8.718;2023-02-23T00:46:58;10.68;74.74
69324;DHT22;56470;47.350;8.718;2023-02-23T00:49:23;10.70;75.31
69324;DHT22;56470;47.350;8.718;2023-02-23T00:51:49;10.68;75.33
69324;DHT22;56470;47.350;8.718;2023-02-23T00:54:17;10.74;75.15
69324;DHT22;56470;47.350;8.718;2023-02-23T00:56:43;10.75;75.30
69324;DHT22;56470;47.350;8.718;2023-02-23T00:59:09;10.77;75.14
69324;DHT22;56470;47.350;8.718;2023-02-23T01:01:35;10.74;75.09
69324;DHT22;56470;47.350;8.718;2023-02-23T01:04:02;10.77;75.31
69324;DHT22;56470;47.350;8.718;2023-02-23T01:06:27;10.70;75.46
69324;DHT22;56470;47.350;8.718;2023-02-23T01:08:53;10.73;75.45
69324;DHT22;56470;47.350;8.718;2023-02-23T01:11:23;10.67;75.41
69324;DHT22;56470;47.350;8.718;2023-02-23T01:13:51;10.64;75.41
69324;DHT22;56470;47.350;8.718;2023-02-23T01:16:19;10.64;75.59
69324;DHT22;56470;47.350;8.718;2023-02-23T01:18:45;10.63;75.63
69324;DHT22;56470;47.350;8.718;2023-02-23T01:21:24;10.68;75.69
69324;DHT22;56470;47.350;8.718;2023-02-23T01:23:51;10.73;75.55
69324;DHT22;56470;47.350;8.718;2023-02-23T01:26:30;10.71;76.13
69324;DHT22;56470;47.350;8.718;2023-02-23T01:29:03;10.73;75.45
69324;DHT22;56470;47.350;8.718;2023-02-23T01:31:29;10.74;75.64
69324;DHT22;56470;47.350;8.718;2023-02-23T01:33:56;10.77;75.59
69324;DHT22;56470;47.350;8.718;2023-02-23T01:36:22;10.84;75.76
69324;DHT22;56470;47.350;8.718;2023-02-23T01:38:48;10.82;75.59
69324;DHT22;56470;47.350;8.718;2023-02-23T01:41:14;10.84;75.53
69324;DHT22;56470;47.350;8.718;2023-02-23T01:44:01;10.82;76.40
69324;DHT22;56470;47.350;8.718;2023-02-23T01:46:30;10.81;75.80
69324;DHT22;56470;47.350;8.718;2023-02-23T01:48:56;10.81;75.85
69324;DHT22;56470;47.350;8.718;2023-02-23T01:51:25;10.77;75.98
69324;DHT22;56470;47.350;8.718;2023-02-23T01:54:02;10.70;76.99
69324;DHT22;56470;47.350;8.718;2023-02-23T01:56:32;10.67;76.04
69324;DHT22;56470;47.350;8.718;2023-02-23T01:59:04;10.67;76.08
69324;DHT22;56470;47.350;8.718;2023-02-23T02:01:30;10.70;76.53
69324;DHT22;56470;47.350;8.718;2023-02-23T02:04:00;10.67;76.28
69324;DHT22;56470;47.350;8.718;2023-02-23T02:06:26;10.65;76.28
69324;DHT22;56470;47.350;8.718;2023-02-23T02:08:55;10.64;76.41
69324;DHT22;56470;47.350;8.718;2023-02-23T02:11:22;10.60;76.34
69324;DHT22;56470;47.350;8.718;2023-02-23T02:17:00;10.65;77.25
69324;DHT22;56470;47.350;8.718;2023-02-23T02:22:17;10.65;76.40
69324;DHT22;56470;47.350;8.718;2023-02-23T02:27:53;10.74;77.09
69324;DHT22;56470;47.350;8.718;2023-02-23T02:36:09;10.81;77.06
69324;DHT22;56470;47.350;8.718;2023-02-23T02:39:22;10.85;77.37
69324;DHT22;56470;47.350;8.718;2023-02-23T02:44:38;10.92;75.94
69324;DHT22;56470;47.350;8.718;2023-02-23T02:47:11;10.94;75.87
69324;DHT22;56470;47.350;8.718;2023-02-23T02:50:05;10.92;77.13
69324;DHT22;56470;47.350;8.718;2023-02-23T02:52:39;10.92;75.87
69324;DHT22;56470;47.350;8.718;2023-02-23T02:55:06;10.92;75.84
69324;DHT22;56470;47.350;8.718;2023-02-23T02:57:36;10.92;75.85
69324;DHT22;56470;47.350;8.718;2023-02-23T03:00:03;10.95;75.84
69324;DHT22;56470;47.350;8.718;2023-02-23T03:02:47;10.98;75.77
69324;DHT22;56470;47.350;8.718;2023-02-23T03:05:41;10.98;75.88
69324;DHT22;56470;47.350;8.718;2023-02-23T03:08:36;10.99;75.88
69324;DHT22;56470;47.350;8.718;2023-02-23T03:11:24;10.98;75.84
69324;DHT22;56470;47.350;8.718;2023-02-23T03:26:06;10.87;76.11
69324;DHT22;56470;47.350;8.718;2023-02-23T03:29:06;10.87;76.55
69324;DHT22;56470;47.350;8.718;2023-02-23T03:32:08;10.80;77.00
69324;DHT22;56470;47.350;8.718;2023-02-23T03:35:08;10.78;76.71
69324;DHT22;56470;47.350;8.718;2023-02-23T03:41:02;10.80;76.26
69324;DHT22;56470;47.350;8.718;2023-02-23T03:43:54;10.84;76.68
69324;DHT22;56470;47.350;8.718;2023-02-23T03:46:40;10.80;75.97
69324;DHT22;56470;47.350;8.718;2023-02-23T03:49:27;10.80;76.19
69324;DHT22;56470;47.350;8.718;2023-02-23T03:52:18;10.74;75.91
69324;DHT22;56470;47.350;8.718;2023-02-23T03:55:11;10.65;76.49
69324;DHT22;56470;47.350;8.718;2023-02-23T03:57:58;10.59;76.66
69324;DHT22;56470;47.350;8.718;2023-02-23T04:00:47;10.57;76.59
69324;DHT22;56470;47.350;8.718;2023-02-23T04:03:34;10.60;76.66
69324;DHT22;56470;47.350;8.718;2023-02-23T04:06:22;10.63;76.57
69324;DHT22;56470;47.350;8.718;2023-02-23T04:09:07;10.67;76.88
69324;DHT22;56470;47.350;8.718;2023-02-23T04:11:59;10.65;76.60
69324;DHT22;56470;47.350;8.718;2023-02-23T04:14:52;10.65;76.69
69324;DHT22;56470;47.350;8.718;2023-02-23T04:17:19;10.64;76.66
69324;DHT22;56470;47.350;8.718;2023-02-23T04:19:50;10.57;76.99
69324;DHT22;56470;47.350;8.718;2023-02-23T04:22:15;10.47;77.58
69324;DHT22;56470;47.350;8.718;2023-02-23T04:24:40;10.37;77.58
69324;DHT22;56470;47.350;8.718;2023-02-23T04:27:06;10.35;77.99
69324;DHT22;56470;47.350;8.718;2023-02-23T04:29:31;10.39;77.95
69324;DHT22;56470;47.350;8.718;2023-02-23T04:31:56;10.42;77.53
69324;DHT22;56470;47.350;8.718;2023-02-23T04:34:22;10.45;77.63
69324;DHT22;56470;47.350;8.718;2023-02-23T04:36:47;10.45;77.58
69324;DHT22;56470;47.350;8.718;2023-02-23T04:39:15;10.47;77.32
69324;DHT22;56470;47.350;8.718;2023-02-23T04:41:40;10.46;77.66
69324;DHT22;56470;47.350;8.718;2023-02-23T04:44:06;10.49;77.74
69324;DHT22;56470;47.350;8.718;2023-02-23T04:46:31;10.52;77.57
69324;DHT22;56470;47.350;8.718;2023-02-23T04:48:56;10.59;77.37
69324;DHT22;56470;47.350;8.718;2023-02-23T04:51:21;10.65;77.33
69324;DHT22;56470;47.350;8.718;2023-02-23T04:53:47;10.70;77.13
69324;DHT22;56470;47.350;8.718;2023-02-23T04:56:12;10.74;77.02
69324;DHT22;56470;47.350;8.718;2023-02-23T04:58:37;10.80;76.98
69324;DHT22;56470;47.350;8.718;2023-02-23T05:01:06;10.84;76.87
69324;DHT22;56470;47.350;8.718;2023-02-23T05:03:34;10.82;76.89
69324;DHT22;56470;47.350;8.718;2023-02-23T05:05:59;10.84;76.76
69324;DHT22;56470;47.350;8.718;2023-02-23T05:08:24;10.88;76.55
69324;DHT22;56470;47.350;8.718;2023-02-23T05:10:50;10.87;76.73
69324;DHT22;56470;47.350;8.718;2023-02-23T05:13:15;10.87;76.69
69324;DHT22;56470;47.350;8.718;2023-02-23T05:15:40;10.87;76.74
69324;DHT22;56470;47.350;8.718;2023-02-23T05:18:06;10.87;76.76
69324;DHT22;56470;47.350;8.718;2023-02-23T05:20:32;10.92;76.66
69324;DHT22;56470;47.350;8.718;2023-02-23T05:22:57;10.88;76.62
69324;DHT22;56470;47.350;8.718;2023-02-23T05:25:23;10.91;76.62
69324;DHT22;56470;47.350;8.718;2023-02-23T05:27:48;10.94;76.60
69324;DHT22;56470;47.350;8.718;2023-02-23T05:30:14;10.97;76.48
69324;DHT22;56470;47.350;8.718;2023-02-23T05:32:39;10.97;76.40
69324;DHT22;56470;47.350;8.718;2023-02-23T05:35:08;10.97;76.33
69324;DHT22;56470;47.350;8.718;2023-02-23T05:37:33;10.95;76.56
69324;DHT22;56470;47.350;8.718;2023-02-23T05:39:59;10.90;76.46
69324;DHT22;56470;47.350;8.718;2023-02-23T05:42:24;10.90;76.51
69324;DHT22;56470;47.350;8.718;2023-02-23T05:44:50;10.90;76.46
69324;DHT22;56470;47.350;8.718;2023-02-23T05:47:15;10.90;76.33
69324;DHT22;56470;47.350;8.718;2023-02-23T05:49:40;10.94;76.36
69324;DHT22;56470;47.350;8.718;2023-02-23T05:52:06;10.95;76.45
69324;DHT22;56470;47.350;8.718;2023-02-23T05:54:32;10.94;76.42
69324;DHT22;56470;47.350;8.718;2023-02-23T05:56:58;10.97;76.34
69324;DHT22;56470;47.350;8.718;2023-02-23T05:59:23;10.97;76.27
69324;DHT22;56470;47.350;8.718;2023-02-23T06:01:49;10.95;76.24
69324;DHT22;56470;47.350;8.718;2023-02-23T06:04:14;10.92;76.39
69324;DHT22;56470;47.350;8.718;2023-02-23T06:06:41;10.90;76.36
69324;DHT22;56470;47.350;8.718;2023-02-23T06:09:07;10.91;76.42
69324;DHT22;56470;47.350;8.718;2023-02-23T06:11:32;10.97;76.37
69324;DHT22;56470;47.350;8.718;2023-02-23T06:13:58;10.98;76.28
69324;DHT22;56470;47.350;8.718;2023-02-23T06:16:25;11.02;76.11
69324;DHT22;56470;47.350;8.718;2023-02-23T06:18:50;10.99;76.11
69324;DHT22;56470;47.350;8.718;2023-02-23T06:21:15;10.99;76.19
69324;DHT22;56470;47.350;8.718;2023-02-23T06:23:41;11.02;76.06
69324;DHT22;56470;47.350;8.718;2023-02-23T06:26:06;11.02;76.15
69324;DHT22;56470;47.350;8.718;2023-02-23T06:28:32;11.02;76.12
69324;DHT22;56470;47.350;8.718;2023-02-23T06:30:58;10.99;76.22
69324;DHT22;56470;47.350;8.718;2023-02-23T06:33:23;10.94;76.22
69324;DHT22;56470;47.350;8.718;2023-02-23T06:35:48;10.94;75.97
69324;DHT22;56470;47.350;8.718;2023-02-23T06:38:14;10.94;76.13
69324;DHT22;56470;47.350;8.718;2023-02-23T06:40:39;10.98;76.10
69324;DHT22;56470;47.350;8.718;2023-02-23T06:43:05;10.98;76.07
69324;DHT22;56470;47.350;8.718;2023-02-23T06:45:31;10.97;75.94
69324;DHT22;56470;47.350;8.718;2023-02-23T06:47:57;10.95;76.03
69324;DHT22;56470;47.350;8.718;2023-02-23T06:50:23;10.97;76.03
69324;DHT22;56470;47.350;8.718;2023-02-23T06:52:48;10.97;76.10
69324;DHT22;56470;47.350;8.718;2023-02-23T06:55:14;10.95;76.15
69324;DHT22;56470;47.350;8.718;2023-02-23T06:57:40;10.99;76.17
69324;DHT22;56470;47.350;8.718;2023-02-23T07:00:11;10.98;75.97
69324;DHT22;56470;47.350;8.718;2023-02-23T07:02:41;10.98;75.92
69324;DHT22;56470;47.350;8.718;2023-02-23T07:05:08;10.94;75.87
69324;DHT22;56470;47.350;8.718;2023-02-23T07:07:33;10.87;75.97
69324;DHT22;56470;47.350;8.718;2023-02-23T07:09:59;10.80;76.28
69324;DHT22;56470;47.350;8.718;2023-02-23T07:12:24;10.74;76.26
69324;DHT22;56470;47.350;8.718;2023-02-23T07:14:49;10.71;76.24
69324;DHT22;56470;47.350;8.718;2023-02-23T07:17:15;10.73;76.38
69324;DHT22;56470;47.350;8.718;2023-02-23T07:19:42;10.73;76.36
69324;DHT22;56470;47.350;8.718;2023-02-23T07:22:07;10.73;76.35
69324;DHT22;56470;47.350;8.718;2023-02-23T07:24:32;10.67;76.41
69324;DHT22;56470;47.350;8.718;2023-02-23T07:26:58;10.68;76.45
69324;DHT22;56470;47.350;8.718;2023-02-23T07:29:23;10.67;76.45
69324;DHT22;56470;47.350;8.718;2023-02-23T07:31:49;10.65;76.42
69324;DHT22;56470;47.350;8.718;2023-02-23T07:34:14;10.67;76.38
69324;DHT22;56470;47.350;8.718;2023-02-23T07:36:40;10.67;76.51
69324;DHT22;56470;47.350;8.718;2023-02-23T07:39:08;10.71;76.43
69324;DHT22;56470;47.350;8.718;2023-02-23T07:41:33;10.73;76.48
69324;DHT22;56470;47.350;8.718;2023-02-23T07:43:58;10.74;76.55
69324;DHT22;56470;47.350;8.718;2023-02-23T07:46:25;10.82;76.51
69324;DHT22;56470;47.350;8.718;2023-02-23T07:48:50;10.82;76.45
69324;DHT22;56470;47.350;8.718;2023-02-23T07:51:15;10.84;76.24
69324;DHT22;56470;47.350;8.718;2023-02-23T07:53:42;10.82;76.36
69324;DHT22;56470;47.350;8.718;2023-02-23T07:56:08;10.85;76.41
69324;DHT22;56470;47.350;8.718;2023-02-23T07:58:38;10.88;76.44
69324;DHT22;56470;47.350;8.718;2023-02-23T08:01:04;10.97;76.33
69324;DHT22;56470;47.350;8.718;2023-02-23T08:03:29;10.97;76.24
69324;DHT22;56470;47.350;8.718;2023-02-23T08:05:54;11.01;76.19
69324;DHT22;56470;47.350;8.718;2023-02-23T08:08:20;11.05;76.12
69324;DHT22;56470;47.350;8.718;2023-02-23T08:10:46;11.07;75.93
69324;DHT22;56470;47.350;8.718;2023-02-23T08:13:12;11.07;75.74
69324;DHT22;56470;47.350;8.718;2023-02-23T08:15:37;11.09;75.65
69324;DHT22;56470;47.350;8.718;2023-02-23T08:18:03;11.07;75.73
69324;DHT22;56470;47.350;8.718;2023-02-23T08:20:29;11.04;75.77
69324;DHT22;56470;47.350;8.718;2023-02-23T08:22:55;11.09;75.86
69324;DHT22;56470;47.350;8.718;2023-02-23T08:25:21;11.12;75.82
69324;DHT22;56470;47.350;8.718;2023-02-23T08:27:47;11.15;75.69
69324;DHT22;56470;47.350;8.718;2023-02-23T08:30:14;11.20;75.68
69324;DHT22;56470;47.350;8.718;2023-02-23T08:32:39;11.23;75.54
69324;DHT22;56470;47.350;8.718;2023-02-23T08:35:08;11.26;75.66
69324;DHT22;56470;47.350;8.718;2023-02-23T08:37:33;11.30;75.64
69324;DHT22;56470;47.350;8.718;2023-02-23T08:39:59;11.32;75.43
69324;DHT22;56470;47.350;8.718;2023-02-23T08:42:25;11.36;75.41
69324;DHT22;56470;47.350;8.718;2023-02-23T08:44:50;11.39;75.40
69324;DHT22;56470;47.350;8.718;2023-02-23T08:47:16;11.46;75.62
69324;DHT22;56470;47.350;8.718;2023-02-23T08:49:48;11.59;75.63
69324;DHT22;56470;47.350;8.718;2023-02-23T08:52:13;11.66;75.03
69324;DHT22;56470;47.350;8.718;2023-02-23T08:54:39;11.71;74.92
69324;DHT22;56470;47.350;8.718;2023-02-23T08:57:04;11.74;74.86
69324;DHT22;56470;47.350;8.718;2023-02-23T08:59:29;11.80;74.67
69324;DHT22;56470;47.350;8.718;2023-02-23T09:01:55;11.85;74.47
69324;DHT22;56470;47.350;8.718;2023-02-23T09:04:20;11.89;74.38
69324;DHT22;56470;47.350;8.718;2023-02-23T09:06:46;11.89;74.36
69324;DHT22;56470;47.350;8.718;2023-02-23T09:09:12;11.94;74.33
69324;DHT22;56470;47.350;8.718;2023-02-23T09:11:37;11.99;74.19
69324;DHT22;56470;47.350;8.718;2023-02-23T09:14:02;12.02;73.92
69324;DHT22;56470;47.350;8.718;2023-02-23T09:16:28;11.95;73.41
69324;DHT22;56470;47.350;8.718;2023-02-23T09:18:53;11.85;73.49
69324;DHT22;56470;47.350;8.718;2023-02-23T09:21:19;11.82;73.66
69324;DHT22;56470;47.350;8.718;2023-02-23T09:23:46;11.87;73.74
69324;DHT22;56470;47.350;8.718;2023-02-23T09:26:14;11.85;73.70
69324;DHT22;56470;47.350;8.718;2023-02-23T09:28:41;11.85;73.33
69324;DHT22;56470;47.350;8.718;2023-02-23T09:31:09;11.85;73.35
69324;DHT22;56470;47.350;8.718;2023-02-23T09:33:35;11.84;73.39
69324;DHT22;56470;47.350;8.718;2023-02-23T09:36:06;11.84;73.36
69324;DHT22;56470;47.350;8.718;2023-02-23T09:38:31;11.82;73.24
69324;DHT22;56470;47.350;8.718;2023-02-23T09:40:57;11.80;73.19
69324;DHT22;56470;47.350;8.718;2023-02-23T09:46:28;11.70;73.22
69324;DHT22;56470;47.350;8.718;2023-02-23T09:49:00;11.74;73.34
69324;DHT22;56470;47.350;8.718;2023-02-23T09:51:27;11.78;73.39
69324;DHT22;56470;47.350;8.718;2023-02-23T09:53:56;11.81;73.25
69324;DHT22;56470;47.350;8.718;2023-02-23T09:56:36;11.77;73.18
69324;DHT22;56470;47.350;8.718;2023-02-23T09:59:04;11.75;73.30
69324;DHT22;56470;47.350;8.718;2023-02-23T10:01:40;11.75;73.10
69324;DHT22;56470;47.350;8.718;2023-02-23T10:04:22;11.82;73.28
69324;DHT22;56470;47.350;8.718;2023-02-23T10:06:58;11.84;73.06
69324;DHT22;56470;47.350;8.718;2023-02-23T10:20:59;12.21;72.42
69324;DHT22;56470;47.350;8.718;2023-02-23T10:23:30;12.34;72.31
69324;DHT22;56470;47.350;8.718;2023-02-23T10:25:59;12.44;72.25
69324;DHT22;56470;47.350;8.718;2023-02-23T10:28:26;12.59;72.03
69324;DHT22;56470;47.350;8.718;2023-02-23T10:30:54;12.67;71.90
69324;DHT22;56470;47.350;8.718;2023-02-23T10:33:30;12.87;71.81
69324;DHT22;56470;47.350;8.718;2023-02-23T10:36:07;13.02;71.33
69324;DHT22;56470;47.350;8.718;2023-02-23T10:38:35;13.16;70.89
69324;DHT22;56470;47.350;8.718;2023-02-23T10:41:01;13.26;70.75
69324;DHT22;56470;47.350;8.718;2023-02-23T10:43:28;13.30;70.25
69324;DHT22;56470;47.350;8.718;2023-02-23T10:45:54;13.38;70.29
69324;DHT22;56470;47.350;8.718;2023-02-23T10:48:25;13.39;70.26
69324;DHT22;56470;47.350;8.718;2023-02-23T10:50:56;13.44;69.69
69324;DHT22;56470;47.350;8.718;2023-02-23T10:53:34;13.35;69.45
69324;DHT22;56470;47.350;8.718;2023-02-23T10:56:19;13.36;69.31
69324;DHT22;56470;47.350;8.718;2023-02-23T10:58:46;13.39;69.69
69324;DHT22;56470;47.350;8.718;2023-02-23T11:01:14;13.43;69.78
69324;DHT22;56470;47.350;8.718;2023-02-23T11:03:45;13.47;69.56
69324;DHT22;56470;47.350;8.718;2023-02-23T11:06:30;13.56;69.39
69324;DHT22;56470;47.350;8.718;2023-02-23T11:08:55;13.64;69.48
69324;DHT22;56470;47.350;8.718;2023-02-23T11:11:26;13.67;69.18
69324;DHT22;56470;47.350;8.718;2023-02-23T11:13:54;13.71;69.10
69324;DHT22;56470;47.350;8.718;2023-02-23T11:16:27;13.71;68.96
69324;DHT22;56470;47.350;8.718;2023-02-23T11:23:56;13.74;68.56
69324;DHT22;56470;47.350;8.718;2023-02-23T11:26:31;13.71;68.07
69324;DHT22;56470;47.350;8.718;2023-02-23T11:29:11;13.66;68.29
69324;DHT22;56470;47.350;8.718;2023-02-23T11:31:37;13.63;68.43
69324;DHT22;56470;47.350;8.718;2023-02-23T11:34:05;13.67;68.40
69324;DHT22;56470;47.350;8.718;2023-02-23T11:36:34;13.66;68.35
69324;DHT22;56470;47.350;8.718;2023-02-23T11:39:20;13.64;67.40
69324;DHT22;56470;47.350;8.718;2023-02-23T11:42:05;13.63;67.65
69324;DHT22;56470;47.350;8.718;2023-02-23T11:44:36;13.67;68.11
69324;DHT22;56470;47.350;8.718;2023-02-23T11:47:02;13.70;67.81
69324;DHT22;56470;47.350;8.718;2023-02-23T11:49:31;13.75;67.92
69324;DHT22;56470;47.350;8.718;2023-02-23T11:51:58;13.81;67.75
69324;DHT22;56470;47.350;8.718;2023-02-23T11:54:28;13.84;67.66
69324;DHT22;56470;47.350;8.718;2023-02-23T11:56:54;13.82;67.41
69324;DHT22;56470;47.350;8.718;2023-02-23T11:59:33;13.77;66.77
69324;DHT22;56470;47.350;8.718;2023-02-23T12:02:21;13.79;66.46
69324;DHT22;56470;47.350;8.718;2023-02-23T12:04:49;13.82;67.10
69324;DHT22;56470;47.350;8.718;2023-02-23T12:10:25;13.87;66.18
69324;DHT22;56470;47.350;8.718;2023-02-23T12:18:58;13.91;66.28
69324;DHT22;56470;47.350;8.718;2023-02-23T12:21:47;13.89;66.04
69324;DHT22;56470;47.350;8.718;2023-02-23T12:26:56;13.92;66.67
69324;DHT22;56470;47.350;8.718;2023-02-23T12:31:59;13.94;66.52
69324;DHT22;56470;47.350;8.718;2023-02-23T12:34:33;13.95;66.44
69324;DHT22;56470;47.350;8.718;2023-02-23T12:37:08;13.98;66.22
69324;DHT22;56470;47.350;8.718;2023-02-23T12:39:43;13.97;66.06
69324;DHT22;56470;47.350;8.718;2023-02-23T12:42:33;13.95;65.78
69324;DHT22;56470;47.350;8.718;2023-02-23T12:45:04;13.98;66.08
69324;DHT22;56470;47.350;8.718;2023-02-23T12:50:12;14.00;65.89
69324;DHT22;56470;47.350;8.718;2023-02-23T12:52:47;14.04;65.96
69324;DHT22;56470;47.350;8.718;2023-02-23T12:55:48;14.02;65.53
69324;DHT22;56470;47.350;8.718;2023-02-23T12:58:21;14.04;65.91
69324;DHT22;56470;47.350;8.718;2023-02-23T13:01:03;14.05;65.29
69324;DHT22;56470;47.350;8.718;2023-02-23T13:11:44;14.13;65.50
69324;DHT22;56470;47.350;8.718;2023-02-23T13:16:47;14.18;65.27
69324;DHT22;56470;47.350;8.718;2023-02-23T13:19:25;14.15;64.84
69324;DHT22;56470;47.350;8.718;2023-02-23T13:24:38;14.19;64.94
69324;DHT22;56470;47.350;8.718;2023-02-23T13:29:47;14.16;64.50
69324;DHT22;56470;47.350;8.718;2023-02-23T13:32:16;14.19;64.40
69324;DHT22;56470;47.350;8.718;2023-02-23T13:34:51;14.16;63.81
69324;DHT22;56470;47.350;8.718;2023-02-23T13:37:25;14.18;64.03
69324;DHT22;56470;47.350;8.718;2023-02-23T13:45:18;14.13;62.33
69324;DHT22;56470;47.350;8.718;2023-02-23T13:50:29;14.21;63.16
69324;DHT22;56470;47.350;8.718;2023-02-23T13:53:01;14.18;63.01
69324;DHT22;56470;47.350;8.718;2023-02-23T13:55:47;14.18;62.87
69324;DHT22;56470;47.350;8.718;2023-02-23T13:58:15;14.18;62.68
69324;DHT22;56470;47.350;8.718;2023-02-23T14:00:43;14.16;62.67
69324;DHT22;56470;47.350;8.718;2023-02-23T14:03:24;14.18;62.25
69324;DHT22;56470;47.350;8.718;2023-02-23T14:05:55;14.19;62.68
69324;DHT22;56470;47.350;8.718;2023-02-23T14:08:34;14.19;61.94
69324;DHT22;56470;47.350;8.718;2023-02-23T14:11:01;14.22;62.54
69324;DHT22;56470;47.350;8.718;2023-02-23T14:13:29;14.21;62.56
69324;DHT22;56470;47.350;8.718;2023-02-23T14:16:17;14.19;61.85
69324;DHT22;56470;47.350;8.718;2023-02-23T14:21:49;14.21;61.93
69324;DHT22;56470;47.350;8.718;2023-02-23T14:24:22;14.22;62.27
69324;DHT22;56470;47.350;8.718;2023-02-23T14:29:37;14.21;61.93
69324;DHT22;56470;47.350;8.718;2023-02-23T14:34:54;14.21;61.41
69324;DHT22;56470;47.350;8.718;2023-02-23T14:40:00;14.26;62.15
69324;DHT22;56470;47.350;8.718;2023-02-23T14:42:27;14.28;62.35
69324;DHT22;56470;47.350;8.718;2023-02-23T14:44:55;14.33;62.74
69324;DHT22;56470;47.350;8.718;2023-02-23T14:47:22;14.37;62.90
69324;DHT22;56470;47.350;8.718;2023-02-23T14:49:57;14.44;62.35
69324;DHT22;56470;47.350;8.718;2023-02-23T14:52:27;14.44;62.36
69324;DHT22;56470;47.350;8.718;2023-02-23T14:57:39;14.46;62.25
69324;DHT22;56470;47.350;8.718;2023-02-23T15:02:39;14.47;62.22
69324;DHT22;56470;47.350;8.718;2023-02-23T15:05:15;14.46;61.72
69324;DHT22;56470;47.350;8.718;2023-02-23T15:07:41;14.44;62.17
69324;DHT22;56470;47.350;8.718;2023-02-23T15:10:10;14.47;62.16
69324;DHT22;56470;47.350;8.718;2023-02-23T15:12:37;14.47;62.03
69324;DHT22;56470;47.350;8.718;2023-02-23T15:15:06;14.46;62.12
69324;DHT22;56470;47.350;8.718;2023-02-23T15:17:39;14.44;62.18
69324;DHT22;56470;47.350;8.718;2023-02-23T15:20:15;14.43;62.06
69324;DHT22;56470;47.350;8.718;2023-02-23T15:22:41;14.40;62.17
69324;DHT22;56470;47.350;8.718;2023-02-23T15:25:17;14.41;61.87
69324;DHT22;56470;47.350;8.718;2023-02-23T15:27:44;14.40;62.12
69324;DHT22;56470;47.350;8.718;2023-02-23T15:32:44;14.37;62.04
69324;DHT22;56470;47.350;8.718;2023-02-23T15:35:11;14.36;61.95
69324;DHT22;56470;47.350;8.718;2023-02-23T15:37:42;14.37;61.87
69324;DHT22;56470;47.350;8.718;2023-02-23T15:40:15;14.37;61.51
69324;DHT22;56470;47.350;8.718;2023-02-23T15:42:44;14.36;61.71
69324;DHT22;56470;47.350;8.718;2023-02-23T15:48:05;14.32;61.46
69324;DHT22;56470;47.350;8.718;2023-02-23T15:50:40;14.32;61.27
69324;DHT22;56470;47.350;8.718;2023-02-23T15:53:12;14.33;61.61
69324;DHT22;56470;47.350;8.718;2023-02-23T15:55:44;14.29;61.51
69324;DHT22;56470;47.350;8.718;2023-02-23T16:00:41;14.23;61.54
69324;DHT22;56470;47.350;8.718;2023-02-23T16:03:21;14.22;61.09
69324;DHT22;56470;47.350;8.718;2023-02-23T16:06:04;14.21;61.67
69324;DHT22;56470;47.350;8.718;2023-02-23T16:08:31;14.21;61.79
69324;DHT22;56470;47.350;8.718;2023-02-23T16:11:01;14.21;61.81
69324;DHT22;56470;47.350;8.718;2023-02-23T16:13:27;14.21;61.73
69324;DHT22;56470;47.350;8.718;2023-02-23T16:15:54;14.18;61.81
69324;DHT22;56470;47.350;8.718;2023-02-23T16:18:30;14.16;61.67
69324;DHT22;56470;47.350;8.718;2023-02-23T16:20:58;14.15;61.73
69324;DHT22;56470;47.350;8.718;2023-02-23T16:23:39;14.15;61.58
69324;DHT22;56470;47.350;8.718;2023-02-23T16:26:10;14.15;61.71
69324;DHT22;56470;47.350;8.718;2023-02-23T16:28:41;14.15;61.77
69324;DHT22;56470;47.350;8.718;2023-02-23T16:31:09;14.16;61.78
69324;DHT22;56470;47.350;8.718;2023-02-23T16:33:49;14.16;61.59
69324;DHT22;56470;47.350;8.718;2023-02-23T16:36:21;14.13;61.72
69324;DHT22;56470;47.350;8.718;2023-02-23T16:38:59;14.11;61.62
69324;DHT22;56470;47.350;8.718;2023-02-23T16:41:28;14.11;61.87
69324;DHT22;56470;47.350;8.718;2023-02-23T16:43:57;14.06;61.94
69324;DHT22;56470;47.350;8.718;2023-02-23T16:46:26;14.09;61.97
69324;DHT22;56470;47.350;8.718;2023-02-23T16:48:52;14.06;61.96
69324;DHT22;56470;47.350;8.718;2023-02-23T16:51:19;14.05;62.07
69324;DHT22;56470;47.350;8.718;2023-02-23T16:53:46;14.05;61.95
69324;DHT22;56470;47.350;8.718;2023-02-23T16:56:15;14.04;62.02
69324;DHT22;56470;47.350;8.718;2023-02-23T16:58:43;14.05;61.94
69324;DHT22;56470;47.350;8.718;2023-02-23T17:01:12;14.02;61.96
69324;DHT22;56470;47.350;8.718;2023-02-23T17:03:38;14.04;61.94
69324;DHT22;56470;47.350;8.718;2023-02-23T17:06:04;13.97;62.02
69324;DHT22;56470;47.350;8.718;2023-02-23T17:08:29;13.95;62.17
69324;DHT22;56470;47.350;8.718;2023-02-23T17:10:56;13.95;62.18
69324;DHT22;56470;47.350;8.718;2023-02-23T17:13:26;13.91;62.16
69324;DHT22;56470;47.350;8.718;2023-02-23T17:15:54;13.94;62.17
69324;DHT22;56470;47.350;8.718;2023-02-23T17:18:25;13.89;62.26
69324;DHT22;56470;47.350;8.718;2023-02-23T17:20:51;13.89;62.40
69324;DHT22;56470;47.350;8.718;2023-02-23T17:23:18;13.91;62.56
69324;DHT22;56470;47.350;8.718;2023-02-23T17:25:44;13.87;62.62
69324;DHT22;56470;47.350;8.718;2023-02-23T17:28:09;13.84;62.72
69324;DHT22;56470;47.350;8.718;2023-02-23T17:30:35;13.82;62.82
69324;DHT22;56470;47.350;8.718;2023-02-23T17:33:01;13.79;62.95
69324;DHT22;56470;47.350;8.718;2023-02-23T17:35:31;13.77;63.04
69324;DHT22;56470;47.350;8.718;2023-02-23T17:37:58;13.73;63.22
69324;DHT22;56470;47.350;8.718;2023-02-23T17:40:25;13.70;63.33
69324;DHT22;56470;47.350;8.718;2023-02-23T17:42:54;13.63;63.42
69324;DHT22;56470;47.350;8.718;2023-02-23T17:45:20;13.56;63.55